sensor_id;sensor_type;location;lat;lon;timestamp;pressure;altitude;pressure_sealevel;temperature;humidity
7168;BME280;3625;51.762;14.320;2023-02-13T05:58:06;102780.81;;;6.31;100.00
7168;BME280;3625;51.762;14.320;2023-02-13T06:00:59;102847.69;;;6.65;100.00
7168;BME280;3625;51.762;14.320;2023-02-13T06:03:30;102843.31;;;6.65;100.00
7168;BME280;3625;51.762;14.320;2023-02-13T06:06:10;102844.22;;;6.66;100.00
7168;BME280;3625;51.762;14.320;2023-02-13T06:08:43;102843.31;;;6.65;100.00
7168;BME280;3625;51.762;14.320;2023-02-13T06:11:16;102854.75;;;6.66;100.00
7168;BME280;3625;51.762;14.320;2023-02-13T06:14:13;102843.31;;;6.65;100.00
7168;BME280;3625;51.762;14.320;2023-02-13T06:16:44;102843.31;;;6.65;100.00
7168;BME280;3625;51.762;14.320;2023-02-13T06:19:19;102850.34;;;6.66;100.00
7168;BME280;3625;51.762;14.320;2023-02-13T06:21:52;102854.75;;;6.67;100.00
7168;BME280;3625;51.762;14.320;2023-02-13T06:24:29;102858.22;;;6.66;100.00
7168;BME280;3625;51.762;14.320;2023-02-13T06:27:00;102853.91;;;6.68;100.00
7168;BME280;3625;51.762;14.320;2023-02-13T06:29:40;102855.88;;;6.74;100.00
7168;BME280;3625;51.762;14.320;2023-02-13T06:32:21;102866.41;;;6.75;100.00
7168;BME280;3625;51.762;14.320;2023-02-13T06:34:56;102866.41;;;6.75;100.00
7168;BME280;3625;51.762;14.320;2023-02-13T06:37:35;102861.16;;;6.75;100.00
7168;BME280;3625;51.762;14.320;2023-02-13T06:40:11;102869.91;;;6.74;100.00
7168;BME280;3625;51.762;14.320;2023-02-13T06:42:45;102870.94;;;6.79;100.00
7168;BME280;3625;51.762;14.320;2023-02-13T06:45:16;102876.16;;;6.78;100.00
7168;BME280;3625;51.762;14.320;2023-02-13T06:47:50;102880.56;;;6.79;100.00
7168;BME280;3625;51.762;14.320;2023-02-13T06:50:19;102873.69;;;6.82;100.00
7168;BME280;3625;51.762;14.320;2023-02-13T06:52:51;102879.75;;;6.80;100.00
7168;BME280;3625;51.762;14.320;2023-02-13T06:55:23;102881.47;;;6.79;100.00
7168;BME280;3625;51.762;14.320;2023-02-13T06:57:58;102878.84;;;6.79;100.00
7168;BME280;3625;51.762;14.320;2023-02-13T07:00:30;102891.22;;;6.83;100.00
7168;BME280;3625;51.762;14.320;2023-02-13T07:03:02;102569.09;;;5.05;100.00
7168;BME280;3625;51.762;14.320;2023-02-13T07:05:41;102887.09;;;6.90;100.00
7168;BME280;3625;51.762;14.320;2023-02-13T07:08:11;102896.91;;;6.96;100.00
7168;BME280;3625;51.762;14.320;2023-02-13T07:10:40;102895.28;;;6.99;100.00
7168;BME280;3625;51.762;14.320;2023-02-13T07:13:14;102882.25;;;7.04;100.00
7168;BME280;3625;51.762;14.320;2023-02-13T07:15:44;102883.25;;;7.07;100.00
7168;BME280;3625;51.762;14.320;2023-02-13T07:18:26;102880.78;;;7.13;100.00
7168;BME280;3625;51.762;14.320;2023-02-13T07:26:52;102719.75;;;6.40;100.00
7168;BME280;3625;51.762;14.320;2023-02-13T07:29:21;102887.34;;;7.26;100.00
7168;BME280;3625;51.762;14.320;2023-02-13T07:31:55;102891.72;;;7.26;100.00
7168;BME280;3625;51.762;14.320;2023-02-13T07:34:26;102882.31;;;7.35;100.00
7168;BME280;3625;51.762;14.320;2023-02-13T07:36:54;102892.22;;;7.42;100.00
7168;BME280;3625;51.762;14.320;2023-02-13T07:39:25;102888.97;;;7.51;100.00
7168;BME280;3625;51.762;14.320;2023-02-13T07:42:04;102889.06;;;7.55;100.00
7168;BME280;3625;51.762;14.320;2023-02-13T07:44:43;102889.13;;;7.57;100.00
7168;BME280;3625;51.762;14.320;2023-02-13T07:47:18;102893.03;;;7.71;100.00
7168;BME280;3625;51.762;14.320;2023-02-13T07:49:47;102887.31;;;7.86;100.00
7168;BME280;3625;51.762;14.320;2023-02-13T07:52:17;102889.38;;;7.97;100.00
7168;BME280;3625;51.762;14.320;2023-02-13T07:55:50;102886.06;;;8.03;100.00
7168;BME280;3625;51.762;14.320;2023-02-13T07:58:57;102892.22;;;8.04;100.00
7168;BME280;3625;51.762;14.320;2023-02-13T08:02:32;102897.84;;;8.17;100.00
7168;BME280;3625;51.762;14.320;2023-02-13T08:05:47;102727.81;;;7.34;100.00
7168;BME280;3625;51.762;14.320;2023-02-13T08:08:17;102886.06;;;8.36;100.00
7168;BME280;3625;51.762;14.320;2023-02-13T08:10:47;102890.59;;;8.42;100.00
7168;BME280;3625;51.762;14.320;2023-02-13T08:13:34;102880.06;;;8.42;100.00
7168;BME280;3625;51.762;14.320;2023-02-13T08:16:12;102889.06;;;8.50;100.00
7168;BME280;3625;51.762;14.320;2023-02-13T08:18:57;102897.06;;;8.53;100.00
7168;BME280;3625;51.762;14.320;2023-02-13T08:21:30;102896.22;;;8.54;100.00
7168;BME280;3625;51.762;14.320;2023-02-13T08:24:04;102894.41;;;8.53;100.00
7168;BME280;3625;51.762;14.320;2023-02-13T08:26:42;102901.34;;;8.49;100.00
7168;BME280;3625;51.762;14.320;2023-02-13T08:29:11;102900.44;;;8.47;100.00
7168;BME280;3625;51.762;14.320;2023-02-13T08:31:43;102900.25;;;8.41;100.00
7168;BME280;3625;51.762;14.320;2023-02-13T08:34:32;102903.00;;;8.44;100.00
7168;BME280;3625;51.762;14.320;2023-02-13T08:37:07;102911.84;;;8.48;100.00
7168;BME280;3625;51.762;14.320;2023-02-13T08:39:36;102907.47;;;8.48;100.00
7168;BME280;3625;51.762;14.320;2023-02-13T08:42:07;102625.59;;;6.87;100.00
7168;BME280;3625;51.762;14.320;2023-02-13T08:44:44;102910.13;;;8.48;100.00
7168;BME280;3625;51.762;14.320;2023-02-13T08:47:22;102914.59;;;8.51;100.00
7168;BME280;3625;51.762;14.320;2023-02-13T08:49:55;102914.53;;;8.49;100.00
7168;BME280;3625;51.762;14.320;2023-02-13T08:52:27;102921.31;;;8.40;100.00
7168;BME280;3625;51.762;14.320;2023-02-13T08:55:04;102918.53;;;8.33;100.00
7168;BME280;3625;51.762;14.320;2023-02-13T08:57:33;102916.00;;;8.37;100.00
7168;BME280;3625;51.762;14.320;2023-02-13T09:00:04;102731.00;;;7.23;100.00
7168;BME280;3625;51.762;14.320;2023-02-13T09:02:40;102921.66;;;8.52;100.00
7168;BME280;3625;51.762;14.320;2023-02-13T09:05:16;102917.78;;;8.72;100.00
7168;BME280;3625;51.762;14.320;2023-02-13T09:07:53;102648.28;;;7.47;100.00
7168;BME280;3625;51.762;14.320;2023-02-13T09:10:32;102814.50;;;8.58;100.00
7168;BME280;3625;51.762;14.320;2023-02-13T09:13:27;102915.47;;;9.23;100.00
7168;BME280;3625;51.762;14.320;2023-02-13T09:16:02;102803.06;;;8.58;100.00
7168;BME280;3625;51.762;14.320;2023-02-13T09:18:40;102920.81;;;9.26;100.00
7168;BME280;3625;51.762;14.320;2023-02-13T09:21:21;102772.03;;;8.46;100.00
7168;BME280;3625;51.762;14.320;2023-02-13T09:23:53;102931.38;;;9.25;100.00
7168;BME280;3625;51.762;14.320;2023-02-13T09:26:38;102818.66;;;8.47;100.00
7168;BME280;3625;51.762;14.320;2023-02-13T09:29:11;102926.97;;;8.88;100.00
7168;BME280;3625;51.762;14.320;2023-02-13T09:31:43;102928.63;;;8.84;100.00
7168;BME280;3625;51.762;14.320;2023-02-13T09:34:34;102922.56;;;8.88;100.00
7168;BME280;3625;51.762;14.320;2023-02-13T09:37:10;102930.28;;;8.79;100.00
7168;BME280;3625;51.762;14.320;2023-02-13T09:39:43;102924.81;;;8.72;100.00
7168;BME280;3625;51.762;14.320;2023-02-13T09:42:19;102923.72;;;8.63;100.00
7168;BME280;3625;51.762;14.320;2023-02-13T09:44:59;102822.13;;;8.12;100.00
7168;BME280;3625;51.762;14.320;2023-02-13T09:47:41;102633.84;;;6.99;100.00
7168;BME280;3625;51.762;14.320;2023-02-13T09:50:23;102585.53;;;6.65;100.00
7168;BME280;3625;51.762;14.320;2023-02-13T09:53:10;102935.22;;;8.67;100.00
7168;BME280;3625;51.762;14.320;2023-02-13T09:55:59;102614.00;;;6.80;100.00
7168;BME280;3625;51.762;14.320;2023-02-13T09:58:42;102783.25;;;7.72;100.00
7168;BME280;3625;51.762;14.320;2023-02-13T10:01:28;102863.72;;;8.23;100.00
7168;BME280;3625;51.762;14.320;2023-02-13T10:04:24;102682.41;;;7.11;100.00
7168;BME280;3625;51.762;14.320;2023-02-13T10:07:16;102708.78;;;7.13;100.00
7168;BME280;3625;51.762;14.320;2023-02-13T10:10:09;102661.38;;;6.80;100.00
7168;BME280;3625;51.762;14.320;2023-02-13T10:13:07;102766.69;;;7.43;100.00
7168;BME280;3625;51.762;14.320;2023-02-13T10:15:52;102786.69;;;7.68;100.00
7168;BME280;3625;51.762;14.320;2023-02-13T10:18:32;102861.22;;;8.28;100.00
7168;BME280;3625;51.762;14.320;2023-02-13T10:21:03;102933.22;;;8.93;100.00
7168;BME280;3625;51.762;14.320;2023-02-13T10:23:43;102833.69;;;8.51;100.00
7168;BME280;3625;51.762;14.320;2023-02-13T10:26:26;102811.50;;;8.43;100.00
7168;BME280;3625;51.762;14.320;2023-02-13T10:29:18;102619.72;;;7.30;100.00
7168;BME280;3625;51.762;14.320;2023-02-13T10:32:14;102743.03;;;8.12;100.00
7168;BME280;3625;51.762;14.320;2023-02-13T10:34:47;102921.91;;;9.36;100.00
7168;BME280;3625;51.762;14.320;2023-02-13T10:37:20;102820.34;;;8.81;100.00
7168;BME280;3625;51.762;14.320;2023-02-13T10:39:53;102913.06;;;9.32;100.00
7168;BME280;3625;51.762;14.320;2023-02-13T10:42:49;102841.00;;;9.00;100.00
7168;BME280;3625;51.762;14.320;2023-02-13T10:45:54;102599.09;;;7.82;100.00
7168;BME280;3625;51.762;14.320;2023-02-13T10:48:46;102790.25;;;9.14;100.00
7168;BME280;3625;51.762;14.320;2023-02-13T10:51:32;102660.13;;;8.37;100.00
7168;BME280;3625;51.762;14.320;2023-02-13T10:54:30;102592.78;;;8.15;100.00
7168;BME280;3625;51.762;14.320;2023-02-13T10:57:13;102718.53;;;8.94;100.00
7168;BME280;3625;51.762;14.320;2023-02-13T11:00:02;102794.53;;;9.52;100.00
7168;BME280;3625;51.762;14.320;2023-02-13T11:02:35;102887.97;;;10.43;100.00
7168;BME280;3625;51.762;14.320;2023-02-13T11:05:17;102592.63;;;8.91;100.00
7168;BME280;3625;51.762;14.320;2023-02-13T11:07:56;102896.94;;;10.52;100.00
7168;BME280;3625;51.762;14.320;2023-02-13T11:10:30;102879.59;;;10.70;100.00
7168;BME280;3625;51.762;14.320;2023-02-13T11:13:25;102693.41;;;9.61;100.00
7168;BME280;3625;51.762;14.320;2023-02-13T11:16:17;102612.44;;;9.15;100.00
7168;BME280;3625;51.762;14.320;2023-02-13T11:18:50;102873.31;;;10.65;100.00
7168;BME280;3625;51.762;14.320;2023-02-13T11:21:33;102571.41;;;8.85;100.00
7168;BME280;3625;51.762;14.320;2023-02-13T11:24:14;102871.34;;;10.51;100.00
7168;BME280;3625;51.762;14.320;2023-02-13T11:26:52;102536.72;;;8.65;100.00
7168;BME280;3625;51.762;14.320;2023-02-13T11:29:28;102683.72;;;9.61;100.00
7168;BME280;3625;51.762;14.320;2023-02-13T11:32:31;102516.69;;;8.77;100.00
7168;BME280;3625;51.762;14.320;2023-02-13T11:35:32;102712.34;;;9.85;99.21
7168;BME280;3625;51.762;14.320;2023-02-13T11:38:26;102774.75;;;10.25;98.96
7168;BME280;3625;51.762;14.320;2023-02-13T11:41:08;102633.31;;;9.49;96.61
7168;BME280;3625;51.762;14.320;2023-02-13T11:43:58;102717.13;;;10.07;95.40
7168;BME280;3625;51.762;14.320;2023-02-13T11:46:45;102666.53;;;9.88;94.99
7168;BME280;3625;51.762;14.320;2023-02-13T11:49:24;102802.09;;;10.83;96.19
7168;BME280;3625;51.762;14.320;2023-02-13T11:51:58;102659.78;;;10.06;91.86
7168;BME280;3625;51.762;14.320;2023-02-13T11:54:37;102788.44;;;10.55;89.54
7168;BME280;3625;51.762;14.320;2023-02-13T11:57:21;102791.81;;;10.44;90.23
7168;BME280;3625;51.762;14.320;2023-02-13T11:59:52;102768.03;;;10.45;91.04
7168;BME280;3625;51.762;14.320;2023-02-13T12:02:23;102577.00;;;9.53;90.67
7168;BME280;3625;51.762;14.320;2023-02-13T12:05:18;102798.84;;;11.02;91.36
7168;BME280;3625;51.762;14.320;2023-02-13T12:07:50;102695.81;;;10.55;88.61
7168;BME280;3625;51.762;14.320;2023-02-13T12:10:23;102572.09;;;9.79;87.35
7168;BME280;3625;51.762;14.320;2023-02-13T12:13:05;102711.69;;;10.55;89.95
7168;BME280;3625;51.762;14.320;2023-02-13T12:15:46;102567.59;;;9.72;90.84
7168;BME280;3625;51.762;14.320;2023-02-13T12:18:26;102639.63;;;10.14;91.12
7168;BME280;3625;51.762;14.320;2023-02-13T12:21:27;102655.59;;;10.17;87.05
7168;BME280;3625;51.762;14.320;2023-02-13T12:24:12;102677.53;;;10.13;86.53
7168;BME280;3625;51.762;14.320;2023-02-13T12:27:04;102675.75;;;10.11;87.37
7168;BME280;3625;51.762;14.320;2023-02-13T12:30:14;102603.50;;;9.58;87.53
7168;BME280;3625;51.762;14.320;2023-02-13T12:32:59;102487.09;;;8.94;89.82
7168;BME280;3625;51.762;14.320;2023-02-13T12:35:48;102552.00;;;9.31;91.53
7168;BME280;3625;51.762;14.320;2023-02-13T12:38:47;102869.44;;;11.00;93.08
7168;BME280;3625;51.762;14.320;2023-02-13T12:41:30;102565.41;;;9.45;93.82
7168;BME280;3625;51.762;14.320;2023-02-13T12:44:50;102602.00;;;9.73;95.43
7168;BME280;3625;51.762;14.320;2023-02-13T12:47:28;102712.22;;;10.32;95.21
7168;BME280;3625;51.762;14.320;2023-02-13T12:50:31;102644.56;;;9.90;95.98
7168;BME280;3625;51.762;14.320;2023-02-13T12:53:35;102668.44;;;9.96;90.84
7168;BME280;3625;51.762;14.320;2023-02-13T12:56:41;102542.56;;;8.96;88.08
7168;BME280;3625;51.762;14.320;2023-02-13T12:59:30;102532.44;;;8.70;86.49
7168;BME280;3625;51.762;14.320;2023-02-13T13:06:12;102637.28;;;9.26;87.67
7168;BME280;3625;51.762;14.320;2023-02-13T13:09:29;102663.56;;;9.17;85.00
7168;BME280;3625;51.762;14.320;2023-02-13T13:12:27;102506.09;;;8.28;84.60
7168;BME280;3625;51.762;14.320;2023-02-13T13:15:08;102803.84;;;9.78;86.33
7168;BME280;3625;51.762;14.320;2023-02-13T13:18:02;102537.31;;;8.09;86.68
7168;BME280;3625;51.762;14.320;2023-02-13T13:21:12;102559.75;;;7.91;89.00
7168;BME280;3625;51.762;14.320;2023-02-13T13:23:54;102547.22;;;7.81;90.92
7168;BME280;3625;51.762;14.320;2023-02-13T13:26:43;102571.81;;;7.80;91.33
7168;BME280;3625;51.762;14.320;2023-02-13T13:29:21;102653.56;;;8.19;93.31
7168;BME280;3625;51.762;14.320;2023-02-13T13:31:59;102665.41;;;8.37;94.69
7168;BME280;3625;51.762;14.320;2023-02-13T13:34:38;102540.66;;;7.63;96.51
7168;BME280;3625;51.762;14.320;2023-02-13T13:37:20;102848.13;;;9.45;98.02
7168;BME280;3625;51.762;14.320;2023-02-13T13:40:06;102847.38;;;9.51;99.41
7168;BME280;3625;51.762;14.320;2023-02-13T13:47:39;102746.94;;;9.05;100.00
7168;BME280;3625;51.762;14.320;2023-02-13T13:50:48;102758.56;;;9.14;100.00
7168;BME280;3625;51.762;14.320;2023-02-13T14:36:21;102613.03;;;7.77;100.00
7168;BME280;3625;51.762;14.320;2023-02-13T14:38:58;102794.94;;;8.86;100.00
7168;BME280;3625;51.762;14.320;2023-02-13T14:41:57;102713.88;;;8.42;100.00
7168;BME280;3625;51.762;14.320;2023-02-13T14:44:36;102589.97;;;7.70;100.00
7168;BME280;3625;51.762;14.320;2023-02-13T14:47:22;102460.75;;;6.89;100.00
7168;BME280;3625;51.762;14.320;2023-02-13T14:49:55;102714.72;;;8.41;100.00
7168;BME280;3625;51.762;14.320;2023-02-13T14:52:37;102713.56;;;8.29;100.00
7168;BME280;3625;51.762;14.320;2023-02-13T14:55:16;102691.28;;;8.17;100.00
7168;BME280;3625;51.762;14.320;2023-02-13T14:57:53;102637.75;;;7.83;100.00
7168;BME280;3625;51.762;14.320;2023-02-13T15:00:35;102497.22;;;7.08;100.00
7168;BME280;3625;51.762;14.320;2023-02-13T15:03:23;102727.88;;;8.39;100.00
7168;BME280;3625;51.762;14.320;2023-02-13T15:05:56;102516.84;;;7.22;100.00
7168;BME280;3625;51.762;14.320;2023-02-13T15:08:34;102606.44;;;7.60;100.00
7168;BME280;3625;51.762;14.320;2023-02-13T15:11:10;102785.75;;;8.69;100.00
7168;BME280;3625;51.762;14.320;2023-02-13T15:14:20;102699.28;;;8.20;100.00
7168;BME280;3625;51.762;14.320;2023-02-13T15:17:14;102712.50;;;8.21;100.00
7168;BME280;3625;51.762;14.320;2023-02-13T15:19:51;102751.72;;;8.44;100.00
7168;BME280;3625;51.762;14.320;2023-02-13T15:22:33;102773.13;;;8.56;100.00
7168;BME280;3625;51.762;14.320;2023-02-13T15:25:06;102765.09;;;8.51;100.00
7168;BME280;3625;51.762;14.320;2023-02-13T15:27:41;102756.97;;;8.42;100.00
7168;BME280;3625;51.762;14.320;2023-02-13T15:30:22;102616.66;;;7.47;100.00
7168;BME280;3625;51.762;14.320;2023-02-13T15:32:55;102769.22;;;8.40;100.00
7168;BME280;3625;51.762;14.320;2023-02-13T15:35:36;102464.63;;;6.68;100.00
7168;BME280;3625;51.762;14.320;2023-02-13T15:38:22;102623.88;;;7.54;100.00
7168;BME280;3625;51.762;14.320;2023-02-13T15:41:00;102682.78;;;7.92;100.00
7168;BME280;3625;51.762;14.320;2023-02-13T15:43:34;102754.16;;;8.35;100.00
7168;BME280;3625;51.762;14.320;2023-02-13T15:46:20;102724.66;;;8.16;100.00
7168;BME280;3625;51.762;14.320;2023-02-13T15:48:54;102575.91;;;7.32;100.00
7168;BME280;3625;51.762;14.320;2023-02-13T15:51:48;102753.84;;;8.24;100.00
7168;BME280;3625;51.762;14.320;2023-02-13T15:54:25;102753.63;;;8.15;100.00
7168;BME280;3625;51.762;14.320;2023-02-13T15:57:05;102618.19;;;7.38;100.00
7168;BME280;3625;51.762;14.320;2023-02-13T15:59:36;102473.94;;;6.56;100.00
7168;BME280;3625;51.762;14.320;2023-02-13T16:02:17;102757.25;;;8.18;100.00
7168;BME280;3625;51.762;14.320;2023-02-13T16:04:50;102760.53;;;8.10;100.00
7168;BME280;3625;51.762;14.320;2023-02-13T16:07:26;102762.47;;;8.17;100.00
7168;BME280;3625;51.762;14.320;2023-02-13T16:10:14;102713.44;;;7.89;100.00
7168;BME280;3625;51.762;14.320;2023-02-13T16:12:48;102761.34;;;8.07;100.00
7168;BME280;3625;51.762;14.320;2023-02-13T16:15:19;102754.16;;;8.00;100.00
7168;BME280;3625;51.762;14.320;2023-02-13T16:17:50;102745.31;;;7.98;100.00
7168;BME280;3625;51.762;14.320;2023-02-13T16:20:22;102457.78;;;6.42;100.00
7168;BME280;3625;51.762;14.320;2023-02-13T16:23:06;102424.47;;;6.10;100.00
7168;BME280;3625;51.762;14.320;2023-02-13T16:26:00;102747.78;;;7.92;100.00
7168;BME280;3625;51.762;14.320;2023-02-13T16:28:33;102440.34;;;6.14;100.00
7168;BME280;3625;51.762;14.320;2023-02-13T16:31:06;102661.81;;;7.28;100.00
7168;BME280;3625;51.762;14.320;2023-02-13T16:33:40;102748.41;;;7.82;100.00
7168;BME280;3625;51.762;14.320;2023-02-13T16:36:28;102409.59;;;5.80;100.00
7168;BME280;3625;51.762;14.320;2023-02-13T16:39:14;102475.25;;;6.09;100.00
7168;BME280;3625;51.762;14.320;2023-02-13T16:41:46;102762.31;;;7.76;100.00
7168;BME280;3625;51.762;14.320;2023-02-13T16:44:24;102755.31;;;7.77;100.00
7168;BME280;3625;51.762;14.320;2023-02-13T16:46:57;102740.81;;;7.60;100.00
7168;BME280;3625;51.762;14.320;2023-02-13T16:49:30;102752.63;;;7.75;100.00
7168;BME280;3625;51.762;14.320;2023-02-13T16:52:16;102446.66;;;5.89;100.00
7168;BME280;3625;51.762;14.320;2023-02-13T16:54:55;102767.44;;;7.72;100.00
7168;BME280;3625;51.762;14.320;2023-02-13T16:57:32;102458.25;;;5.96;100.00
7168;BME280;3625;51.762;14.320;2023-02-13T17:00:17;102563.31;;;6.54;100.00
7168;BME280;3625;51.762;14.320;2023-02-13T17:02:50;102766.44;;;7.67;100.00
7168;BME280;3625;51.762;14.320;2023-02-13T17:05:22;102621.09;;;6.82;100.00
7168;BME280;3625;51.762;14.320;2023-02-13T17:07:54;102768.19;;;7.66;100.00
7168;BME280;3625;51.762;14.320;2023-02-13T17:10:28;102665.56;;;7.05;100.00
7168;BME280;3625;51.762;14.320;2023-02-13T17:13:24;102777.03;;;7.68;100.00
7168;BME280;3625;51.762;14.320;2023-02-13T17:15:56;102769.13;;;7.68;100.00
7168;BME280;3625;51.762;14.320;2023-02-13T17:18:30;102771.69;;;7.65;100.00
7168;BME280;3625;51.762;14.320;2023-02-13T17:21:00;102769.00;;;7.64;100.00
7168;BME280;3625;51.762;14.320;2023-02-13T17:23:50;102757.50;;;7.62;100.00
7168;BME280;3625;51.762;14.320;2023-02-13T17:26:40;102439.44;;;5.82;100.00
7168;BME280;3625;51.762;14.320;2023-02-13T17:29:15;102748.72;;;7.60;100.00
7168;BME280;3625;51.762;14.320;2023-02-13T17:31:54;102410.94;;;5.66;100.00
7168;BME280;3625;51.762;14.320;2023-02-13T17:34:25;102746.97;;;7.62;100.00
7168;BME280;3625;51.762;14.320;2023-02-13T17:37:00;102750.41;;;7.57;100.00
7168;BME280;3625;51.762;14.320;2023-02-13T17:39:33;102745.97;;;7.56;100.00
7168;BME280;3625;51.762;14.320;2023-02-13T17:42:18;102609.22;;;6.67;100.00
7168;BME280;3625;51.762;14.320;2023-02-13T17:45:21;102749.47;;;7.55;100.00
7168;BME280;3625;51.762;14.320;2023-02-13T17:48:02;102757.31;;;7.54;100.00
7168;BME280;3625;51.762;14.320;2023-02-13T17:51:17;102775.72;;;7.52;100.00
7168;BME280;3625;51.762;14.320;2023-02-13T17:54:00;102578.44;;;6.33;100.00
7168;BME280;3625;51.762;14.320;2023-02-13T17:57:20;102583.91;;;6.39;100.00
7168;BME280;3625;51.762;14.320;2023-02-13T17:59:55;102780.06;;;7.50;100.00
7168;BME280;3625;51.762;14.320;2023-02-13T18:02:51;102776.59;;;7.51;100.00
7168;BME280;3625;51.762;14.320;2023-02-13T18:05:44;102774.84;;;7.52;100.00
7168;BME280;3625;51.762;14.320;2023-02-13T18:08:17;102765.16;;;7.52;100.00
7168;BME280;3625;51.762;14.320;2023-02-13T18:10:49;102764.31;;;7.52;100.00
7168;BME280;3625;51.762;14.320;2023-02-13T18:13:20;102759.00;;;7.50;100.00
7168;BME280;3625;51.762;14.320;2023-02-13T18:16:10;102760.72;;;7.50;100.00
7168;BME280;3625;51.762;14.320;2023-02-13T18:18:44;102772.97;;;7.48;100.00
7168;BME280;3625;51.762;14.320;2023-02-13T18:21:20;102763.22;;;7.45;100.00
7168;BME280;3625;51.762;14.320;2023-02-13T18:24:11;102757.09;;;7.46;100.00
7168;BME280;3625;51.762;14.320;2023-02-13T18:26:50;102753.53;;;7.44;100.00
7168;BME280;3625;51.762;14.320;2023-02-13T18:29:52;102756.16;;;7.43;100.00
7168;BME280;3625;51.762;14.320;2023-02-13T18:33:10;102764.81;;;7.39;100.00
7168;BME280;3625;51.762;14.320;2023-02-13T18:36:10;102755.06;;;7.36;100.00
7168;BME280;3625;51.762;14.320;2023-02-13T18:42:56;102580.34;;;6.37;100.00
7168;BME280;3625;51.762;14.320;2023-02-13T18:45:35;102766.44;;;7.34;100.00
7168;BME280;3625;51.762;14.320;2023-02-13T18:48:22;102765.53;;;7.33;100.00
7168;BME280;3625;51.762;14.320;2023-02-13T18:51:43;102763.78;;;7.34;100.00
7168;BME280;3625;51.762;14.320;2023-02-13T18:54:48;102755.91;;;7.35;100.00
7168;BME280;3625;51.762;14.320;2023-02-13T18:57:47;102750.66;;;7.35;100.00
7168;BME280;3625;51.762;14.320;2023-02-13T19:00:59;102748.91;;;7.34;100.00
7168;BME280;3625;51.762;14.320;2023-02-13T19:04:28;102757.53;;;7.30;100.00
7168;BME280;3625;51.762;14.320;2023-02-13T19:07:14;102757.44;;;7.27;100.00
7168;BME280;3625;51.762;14.320;2023-02-13T19:10:16;102753.91;;;7.27;100.00
7168;BME280;3625;51.762;14.320;2023-02-13T19:12:49;102751.28;;;7.27;100.00
7168;BME280;3625;51.762;14.320;2023-02-13T19:15:18;102751.28;;;7.27;100.00
7168;BME280;3625;51.762;14.320;2023-02-13T19:17:50;102752.16;;;7.26;100.00
7168;BME280;3625;51.762;14.320;2023-02-13T19:20:24;102745.06;;;7.23;100.00
7168;BME280;3625;51.762;14.320;2023-02-13T19:22:53;102749.44;;;7.23;100.00
7168;BME280;3625;51.762;14.320;2023-02-13T19:25:23;102746.78;;;7.23;100.00
7168;BME280;3625;51.762;14.320;2023-02-13T19:27:52;102745.84;;;7.20;100.00
7168;BME280;3625;51.762;14.320;2023-02-13T19:30:24;102756.38;;;7.20;100.00
7168;BME280;3625;51.762;14.320;2023-02-13T19:33:01;102748.44;;;7.19;100.00
7168;BME280;3625;51.762;14.320;2023-02-13T19:35:36;102751.91;;;7.18;100.00
7168;BME280;3625;51.762;14.320;2023-02-13T19:38:11;102755.44;;;7.17;100.00
7168;BME280;3625;51.762;14.320;2023-02-13T19:41:06;102759.78;;;7.16;100.00
7168;BME280;3625;51.762;14.320;2023-02-13T19:44:42;102404.19;;;5.16;100.00
7168;BME280;3625;51.762;14.320;2023-02-13T19:47:29;102755.31;;;7.14;100.00
7168;BME280;3625;51.762;14.320;2023-02-13T19:50:05;102756.16;;;7.13;100.00
7168;BME280;3625;51.762;14.320;2023-02-13T19:52:44;102749.06;;;7.10;100.00
7168;BME280;3625;51.762;14.320;2023-02-13T19:55:37;102763.06;;;7.09;100.00
7168;BME280;3625;51.762;14.320;2023-02-13T19:58:09;102756.91;;;7.07;100.00
7168;BME280;3625;51.762;14.320;2023-02-13T20:00:43;102759.53;;;7.07;100.00
7168;BME280;3625;51.762;14.320;2023-02-13T20:03:22;102771.88;;;7.10;100.00
7168;BME280;3625;51.762;14.320;2023-02-13T20:06:18;102583.56;;;5.98;100.00
7168;BME280;3625;51.762;14.320;2023-02-13T20:09:03;102775.38;;;7.09;100.00
7168;BME280;3625;51.762;14.320;2023-02-13T20:11:35;102780.63;;;7.09;100.00
7168;BME280;3625;51.762;14.320;2023-02-13T20:14:04;102781.47;;;7.08;100.00
7168;BME280;3625;51.762;14.320;2023-02-13T20:16:40;102786.75;;;7.08;100.00
7168;BME280;3625;51.762;14.320;2023-02-13T20:19:12;102778.88;;;7.09;100.00
7168;BME280;3625;51.762;14.320;2023-02-13T20:21:48;102781.47;;;7.08;100.00
7168;BME280;3625;51.762;14.320;2023-02-13T20:24:31;102774.50;;;7.10;100.00
7168;BME280;3625;51.762;14.320;2023-02-13T20:27:03;102780.63;;;7.09;100.00
7168;BME280;3625;51.762;14.320;2023-02-13T20:29:35;102777.06;;;7.07;100.00
7168;BME280;3625;51.762;14.320;2023-02-13T20:32:05;102785.84;;;7.07;100.00
7168;BME280;3625;51.762;14.320;2023-02-13T20:34:34;102787.59;;;7.07;100.00
7168;BME280;3625;51.762;14.320;2023-02-13T20:37:27;102795.47;;;7.07;100.00
7168;BME280;3625;51.762;14.320;2023-02-13T20:39:58;102799.06;;;7.09;100.00
7168;BME280;3625;51.762;14.320;2023-02-13T20:42:30;102797.28;;;7.09;100.00
7168;BME280;3625;51.762;14.320;2023-02-13T20:45:00;102799.97;;;7.11;100.00
7168;BME280;3625;51.762;14.320;2023-02-13T20:47:29;102799.97;;;7.11;100.00
7168;BME280;3625;51.762;14.320;2023-02-13T20:49:59;102806.09;;;7.10;100.00
7168;BME280;3625;51.762;14.320;2023-02-13T20:52:37;102806.13;;;7.11;100.00
7168;BME280;3625;51.762;14.320;2023-02-13T20:55:07;102813.19;;;7.12;100.00
7168;BME280;3625;51.762;14.320;2023-02-13T20:57:39;102810.50;;;7.11;100.00
7168;BME280;3625;51.762;14.320;2023-02-13T21:00:10;102813.97;;;7.10;100.00
7168;BME280;3625;51.762;14.320;2023-02-13T21:02:44;102819.25;;;7.10;100.00
7168;BME280;3625;51.762;14.320;2023-02-13T21:05:14;102826.25;;;7.09;100.00
7168;BME280;3625;51.762;14.320;2023-02-13T21:07:49;102823.53;;;7.06;100.00
7168;BME280;3625;51.762;14.320;2023-02-13T21:10:20;102816.63;;;7.10;100.00
7168;BME280;3625;51.762;14.320;2023-02-13T21:12:53;102813.97;;;7.08;100.00
7168;BME280;3625;51.762;14.320;2023-02-13T21:15:31;102812.13;;;7.06;100.00